Cedarglen — VCLN — position and weather

sailwx.info

Track history (hours):
 
Tides and Currents Weather Stations Pressure Air Temp Water Temp Dewpoint Dewpoint Depression Visibility Wind Speed Wind Dir Waves Ship Positions

Cedarglen

ex Cartierdoc

Last reported at 2018-Jun-18 22:09 UTC. Time now 2018-Jun-19 04:18 UTC.
Position N 47°01' W 091°40'.

Length 222 m; draft 8.1 m.

Type: Cargo ship. MMSI: 316001838.

Date/timePositionNaut miles runAvg speedWind from/ knotsBaromVisibWave heightAir tempDewpointWater temp
2018-Jun-18 22:09N 47°01' W 091°40'0 0.0
2018-Jun-18 18:26N 47°01' W 091°40'1 1.8
2018-Jun-18 17:53N 46°60' W 091°41'0 0.3
2018-Jun-18 17:27N 46°60' W 091°40'0 0.1
2018-Jun-18 16:55N 46°60' W 091°40'0 0.0
2018-Jun-18 16:30N 46°60' W 091°40'0 0.0
2018-Jun-18 15:59N 46°60' W 091°40'0 0.1
2018-Jun-18 15:30N 46°60' W 091°40'0 0.0
2018-Jun-18 15:00N 46°60' W 091°40'0 0.0
2018-Jun-18 14:17N 46°60' W 091°40'0 0.1
2018-Jun-18 13:59N 46°60' W 091°40'0 0.1
2018-Jun-18 13:27N 46°60' W 091°40'0 0.0
2018-Jun-18 13:00N 46°60' W 091°40'0 0.1
2018-Jun-18 12:22N 46°60' W 091°40'0 0.1
2018-Jun-18 11:59N 46°60' W 091°40'0 0.1
2018-Jun-18 11:30N 46°60' W 091°40'0 0.1
2018-Jun-18 11:00N 46°60' W 091°41'0 0.1
2018-Jun-18 10:30N 46°60' W 091°41'0 0.0
2018-Jun-18 10:00N 46°60' W 091°41'0 0.1
2018-Jun-18 09:30N 46°60' W 091°41'0 0.0
2018-Jun-18 09:00N 46°60' W 091°41'0 0.1
2018-Jun-18 08:30N 46°60' W 091°41'0 0.2
2018-Jun-18 08:00N 46°60' W 091°41'0 0.2
2018-Jun-18 07:30N 46°60' W 091°41'0 0.0
2018-Jun-18 07:00N 46°60' W 091°41'0 0.0
2018-Jun-18 06:30N 46°60' W 091°41'0 0.0
2018-Jun-18 06:00N 46°60' W 091°41'0 0.0
2018-Jun-18 05:30N 46°60' W 091°41'0 0.0
2018-Jun-18 04:55N 46°60' W 091°41'0 0.0
2018-Jun-18 04:30N 46°60' W 091°41'0 0.0
2018-Jun-18 04:00N 46°60' W 091°41'0 0.1
2018-Jun-18 03:30N 46°60' W 091°41'0 0.1
2018-Jun-18 03:00N 46°60' W 091°41'0 0.1
2018-Jun-18 02:19N 46°60' W 091°40'0 0.1
2018-Jun-18 02:00N 46°60' W 091°40'341 9.6
2018-Jun-16 14:37N 45°42' W 083°39'311.8
2018-Jun-16 14:22N 45°40' W 083°37'  
2018-Jun-13 05:31N 45°14' W 074°09'0 8.4
2018-Jun-13 05:30N 45°14' W 074°09'5 8.2
2018-Jun-13 04:56N 45°13' W 074°02'4 8.6
2018-Jun-13 04:29N 45°16' W 073°58'3 6.3
2018-Jun-13 04:00N 45°18' W 073°56'1 1.0
2018-Jun-13 03:30N 45°19' W 073°55'1 1.0
2018-Jun-13 03:00N 45°19' W 073°55'1 2.3
2018-Jun-13 02:30N 45°20' W 073°54'3 5.1
2018-Jun-13 02:00N 45°21' W 073°51'4 8.6
2018-Jun-13 01:30N 45°24' W 073°46'4 7.7
2018-Jun-13 01:00N 45°25' W 073°41'3 5.9
2018-Jun-13 00:30N 45°24' W 073°37'2 4.1
2018-Jun-13 00:00N 45°24' W 073°34'0 0.4
2018-Jun-12 23:30N 45°24' W 073°34'1 2.9
2018-Jun-12 23:00N 45°25' W 073°32'3 6.5
2018-Jun-12 22:30N 45°28' W 073°30'2 4.2
2018-Jun-12 22:00N 45°30' W 073°31'0 0.0
2018-Jun-12 21:30N 45°30' W 073°31'16 6.3
2018-Jun-12 18:57N 45°45' W 073°24'4 8.0
2018-Jun-12 18:30N 45°48' W 073°20'4 8.6
2018-Jun-12 18:00N 45°51' W 073°17'4 8.3
2018-Jun-12 17:30N 45°54' W 073°13'4 8.3
2018-Jun-12 17:00N 45°58' W 073°12'4 8.3
2018-Jun-12 16:30N 46°02' W 073°10'5 8.6
2018-Jun-12 15:59N 46°04' W 073°04'90 9.1
2018-Jun-12 06:06N 46°49' W 071°12'0 3.9
2018-Jun-12 06:00N 46°50' W 071°12'0 0.0
2018-Jun-12 05:30N 46°50' W 071°12'0 0.0
2018-Jun-12 05:00N 46°50' W 071°12'0 0.0
2018-Jun-12 04:25N 46°50' W 071°12'0 0.0
2018-Jun-12 04:00N 46°50' W 071°12'0 0.0
2018-Jun-12 03:30N 46°50' W 071°12'0 0.0
2018-Jun-12 03:00N 46°50' W 071°12'0 0.0
2018-Jun-12 02:29N 46°50' W 071°12'0 0.0
2018-Jun-12 01:56N 46°50' W 071°12'0 0.0
2018-Jun-12 01:26N 46°50' W 071°12'0 0.0
2018-Jun-12 00:53N 46°50' W 071°12'0 0.0
2018-Jun-12 00:29N 46°50' W 071°12'0 0.0
2018-Jun-12 00:00N 46°50' W 071°12'0 0.0
2018-Jun-11 23:30N 46°50' W 071°12'0 0.0
2018-Jun-11 23:00N 46°50' W 071°12'0 0.0
2018-Jun-11 22:22N 46°50' W 071°12'0 0.0
2018-Jun-11 22:00N 46°50' W 071°12'0 0.0
2018-Jun-11 21:17N 46°50' W 071°12'0 0.0
2018-Jun-11 20:53N 46°50' W 071°12'0 0.0
2018-Jun-11 20:30N 46°50' W 071°12'0 0.0
2018-Jun-11 19:57N 46°50' W 071°12'0 0.0
2018-Jun-11 19:30N 46°50' W 071°12'0 0.0
2018-Jun-11 19:00N 46°50' W 071°12'0 0.0
2018-Jun-11 18:25N 46°50' W 071°12'0 0.0
2018-Jun-11 18:00N 46°50' W 071°12'0 0.0
2018-Jun-11 17:30N 46°50' W 071°12'0 0.0
2018-Jun-11 17:00N 46°50' W 071°12'0 0.0
2018-Jun-11 16:27N 46°50' W 071°12'0 0.0
2018-Jun-11 16:00N 46°50' W 071°12'0 0.0
2018-Jun-11 15:28N 46°50' W 071°12'0 0.0
2018-Jun-11 14:59N 46°50' W 071°12'0 0.0
2018-Jun-11 14:30N 46°50' W 071°12'0 0.0
2018-Jun-11 14:00N 46°50' W 071°12'0 0.0
2018-Jun-11 13:27N 46°50' W 071°12'0 0.0
2018-Jun-11 12:53N 46°50' W 071°12'0 0.0
2018-Jun-11 12:27N 46°50' W 071°12'0 0.0
2018-Jun-11 12:00N 46°50' W 071°12'0 0.0
2018-Jun-11 11:29N 46°50' W 071°12'0 0.0
2018-Jun-11 10:41N 46°50' W 071°12'0 0.0
2018-Jun-11 10:30N 46°50' W 071°12'0 0.0
2018-Jun-11 09:51N 46°50' W 071°12'0 0.0
2018-Jun-11 09:30N 46°50' W 071°12'0 0.0
2018-Jun-11 09:00N 46°50' W 071°12'0 0.0
2018-Jun-11 08:27N 46°50' W 071°12'0 0.0
2018-Jun-11 08:00N 46°50' W 071°12'0 0.0
2018-Jun-11 07:28N 46°50' W 071°12'0 0.0
2018-Jun-11 06:56N 46°50' W 071°12'0 0.0
2018-Jun-11 06:24N 46°50' W 071°12'0 0.0
2018-Jun-11 05:57N 46°50' W 071°12'0 0.0
2018-Jun-11 05:28N 46°50' W 071°12'0 0.0
2018-Jun-11 05:00N 46°50' W 071°12'0 0.0
2018-Jun-11 04:21N 46°50' W 071°12'0 0.0
2018-Jun-11 03:52N 46°50' W 071°12'0 0.0
2018-Jun-11 03:30N 46°50' W 071°12'0 0.0
2018-Jun-11 03:00N 46°50' W 071°12'0 0.0
2018-Jun-11 02:27N 46°50' W 071°12'0 0.0
2018-Jun-11 01:57N 46°50' W 071°12'0 0.0
2018-Jun-11 01:30N 46°50' W 071°12'0 0.0
2018-Jun-11 01:00N 46°50' W 071°12'0 0.0
2018-Jun-11 00:29N 46°50' W 071°12'0 0.0
2018-Jun-11 00:00N 46°50' W 071°12'0 0.0
2018-Jun-10 23:28N 46°50' W 071°12'0 0.0
2018-Jun-10 22:58N 46°50' W 071°12'0 0.0
2018-Jun-10 22:30N 46°50' W 071°12'0 0.0
2018-Jun-10 21:57N 46°50' W 071°12'0 0.0
2018-Jun-10 21:28N 46°50' W 071°12'0 0.0
2018-Jun-10 20:59N 46°50' W 071°12'0 0.0
2018-Jun-10 20:27N 46°50' W 071°12'0 0.2
2018-Jun-10 20:00N 46°50' W 071°12'9010.0
2018-Jun-10 11:01N 46°04' W 073°04'012.2
2018-Jun-10 11:00N 46°04' W 073°04'710.5
2018-Jun-10 10:22N 45°59' W 073°11'512.4
2018-Jun-10 10:00N 45°55' W 073°13'612.1
2018-Jun-10 09:30N 45°50' W 073°18'612.5
2018-Jun-10 09:00N 45°45' W 073°24'1111.4
2018-Jun-10 08:03N 45°35' W 073°30'312.1
2018-Jun-10 07:50N 45°33' W 073°31'3 6.8
2018-Jun-10 07:27N 45°30' W 073°31'1 1.2
2018-Jun-10 06:59N 45°30' W 073°31'0 0.3
2018-Jun-10 06:30N 45°29' W 073°31'1 2.9
2018-Jun-10 06:00N 45°28' W 073°30'3 6.5
2018-Jun-10 05:30N 45°25' W 073°31'2 4.6
2018-Jun-10 05:00N 45°24' W 073°34'0 0.5
2018-Jun-10 04:30N 45°24' W 073°34'2 3.0
2018-Jun-10 03:52N 45°24' W 073°37'2 5.6
2018-Jun-10 03:30N 45°25' W 073°40'2 4.0
2018-Jun-10 03:00N 45°25' W 073°43'4 7.5
2018-Jun-10 02:30N 45°24' W 073°48'611.0
2018-Jun-10 02:00N 45°20' W 073°54'1 2.7
2018-Jun-10 01:30N 45°19' W 073°55'1 1.4
2018-Jun-10 00:59N 45°18' W 073°56'0 0.2
2018-Jun-10 00:30N 45°18' W 073°56'1 1.4
2018-Jun-09 23:59N 45°18' W 073°56'2 4.0
2018-Jun-09 23:30N 45°16' W 073°57'  
Track history (hours):
 
Tides and Currents Weather Stations Pressure Air Temp Water Temp Dewpoint Dewpoint Depression Visibility Wind Speed Wind Dir Waves Ship Positions

Cedarglen

ex Cartierdoc

Last reported at 2018-Jun-18 22:09 UTC. Time now 2018-Jun-19 04:18 UTC.
Position N 47°01' W 091°40'.

Length 222 m; draft 8.1 m.

Type: Cargo ship. MMSI: 316001838.

Date/timePositionNaut miles runAvg speedWind from/ knotsBaromVisibWave heightAir tempDewpointWater temp
2018-Jun-18 22:09N 47°01' W 091°40'0 0.0
2018-Jun-18 18:26N 47°01' W 091°40'1 1.8
2018-Jun-18 17:53N 46°60' W 091°41'0 0.3
2018-Jun-18 17:27N 46°60' W 091°40'0 0.1
2018-Jun-18 16:55N 46°60' W 091°40'0 0.0
2018-Jun-18 16:30N 46°60' W 091°40'0 0.0
2018-Jun-18 15:59N 46°60' W 091°40'0 0.1
2018-Jun-18 15:30N 46°60' W 091°40'0 0.0
2018-Jun-18 15:00N 46°60' W 091°40'0 0.0
2018-Jun-18 14:17N 46°60' W 091°40'0 0.1
2018-Jun-18 13:59N 46°60' W 091°40'0 0.1
2018-Jun-18 13:27N 46°60' W 091°40'0 0.0
2018-Jun-18 13:00N 46°60' W 091°40'0 0.1
2018-Jun-18 12:22N 46°60' W 091°40'0 0.1
2018-Jun-18 11:59N 46°60' W 091°40'0 0.1
2018-Jun-18 11:30N 46°60' W 091°40'0 0.1
2018-Jun-18 11:00N 46°60' W 091°41'0 0.1
2018-Jun-18 10:30N 46°60' W 091°41'0 0.0
2018-Jun-18 10:00N 46°60' W 091°41'0 0.1
2018-Jun-18 09:30N 46°60' W 091°41'0 0.0
2018-Jun-18 09:00N 46°60' W 091°41'0 0.1
2018-Jun-18 08:30N 46°60' W 091°41'0 0.2
2018-Jun-18 08:00N 46°60' W 091°41'0 0.2
2018-Jun-18 07:30N 46°60' W 091°41'0 0.0
2018-Jun-18 07:00N 46°60' W 091°41'0 0.0
2018-Jun-18 06:30N 46°60' W 091°41'0 0.0
2018-Jun-18 06:00N 46°60' W 091°41'0 0.0
2018-Jun-18 05:30N 46°60' W 091°41'0 0.0
2018-Jun-18 04:55N 46°60' W 091°41'0 0.0
2018-Jun-18 04:30N 46°60' W 091°41'0 0.0
2018-Jun-18 04:00N 46°60' W 091°41'0 0.1
2018-Jun-18 03:30N 46°60' W 091°41'0 0.1
2018-Jun-18 03:00N 46°60' W 091°41'0 0.1
2018-Jun-18 02:19N 46°60' W 091°40'0 0.1
2018-Jun-18 02:00N 46°60' W 091°40'341 9.6
2018-Jun-16 14:37N 45°42' W 083°39'311.8
2018-Jun-16 14:22N 45°40' W 083°37'  
2018-Jun-13 05:31N 45°14' W 074°09'0 8.4
2018-Jun-13 05:30N 45°14' W 074°09'5 8.2
2018-Jun-13 04:56N 45°13' W 074°02'4 8.6
2018-Jun-13 04:29N 45°16' W 073°58'3 6.3
2018-Jun-13 04:00N 45°18' W 073°56'1 1.0
2018-Jun-13 03:30N 45°19' W 073°55'1 1.0
2018-Jun-13 03:00N 45°19' W 073°55'1 2.3
2018-Jun-13 02:30N 45°20' W 073°54'3 5.1
2018-Jun-13 02:00N 45°21' W 073°51'4 8.6
2018-Jun-13 01:30N 45°24' W 073°46'4 7.7
2018-Jun-13 01:00N 45°25' W 073°41'3 5.9
2018-Jun-13 00:30N 45°24' W 073°37'2 4.1
2018-Jun-13 00:00N 45°24' W 073°34'0 0.4
2018-Jun-12 23:30N 45°24' W 073°34'1 2.9
2018-Jun-12 23:00N 45°25' W 073°32'3 6.5
2018-Jun-12 22:30N 45°28' W 073°30'2 4.2
2018-Jun-12 22:00N 45°30' W 073°31'0 0.0
2018-Jun-12 21:30N 45°30' W 073°31'16 6.3
2018-Jun-12 18:57N 45°45' W 073°24'4 8.0
2018-Jun-12 18:30N 45°48' W 073°20'4 8.6
2018-Jun-12 18:00N 45°51' W 073°17'4 8.3
2018-Jun-12 17:30N 45°54' W 073°13'4 8.3
2018-Jun-12 17:00N 45°58' W 073°12'4 8.3
2018-Jun-12 16:30N 46°02' W 073°10'5 8.6
2018-Jun-12 15:59N 46°04' W 073°04'90 9.1
2018-Jun-12 06:06N 46°49' W 071°12'0 3.9
2018-Jun-12 06:00N 46°50' W 071°12'0 0.0
2018-Jun-12 05:30N 46°50' W 071°12'0 0.0
2018-Jun-12 05:00N 46°50' W 071°12'0 0.0
2018-Jun-12 04:25N 46°50' W 071°12'0 0.0
2018-Jun-12 04:00N 46°50' W 071°12'0 0.0
2018-Jun-12 03:30N 46°50' W 071°12'0 0.0
2018-Jun-12 03:00N 46°50' W 071°12'0 0.0
2018-Jun-12 02:29N 46°50' W 071°12'0 0.0
2018-Jun-12 01:56N 46°50' W 071°12'0 0.0
2018-Jun-12 01:26N 46°50' W 071°12'0 0.0
2018-Jun-12 00:53N 46°50' W 071°12'0 0.0
2018-Jun-12 00:29N 46°50' W 071°12'0 0.0
2018-Jun-12 00:00N 46°50' W 071°12'0 0.0
2018-Jun-11 23:30N 46°50' W 071°12'0 0.0
2018-Jun-11 23:00N 46°50' W 071°12'0 0.0
2018-Jun-11 22:22N 46°50' W 071°12'0 0.0
2018-Jun-11 22:00N 46°50' W 071°12'0 0.0
2018-Jun-11 21:17N 46°50' W 071°12'0 0.0
2018-Jun-11 20:53N 46°50' W 071°12'0 0.0
2018-Jun-11 20:30N 46°50' W 071°12'0 0.0
2018-Jun-11 19:57N 46°50' W 071°12'0 0.0
2018-Jun-11 19:30N 46°50' W 071°12'0 0.0
2018-Jun-11 19:00N 46°50' W 071°12'0 0.0
2018-Jun-11 18:25N 46°50' W 071°12'0 0.0
2018-Jun-11 18:00N 46°50' W 071°12'0 0.0
2018-Jun-11 17:30N 46°50' W 071°12'0 0.0
2018-Jun-11 17:00N 46°50' W 071°12'0 0.0
2018-Jun-11 16:27N 46°50' W 071°12'0 0.0
2018-Jun-11 16:00N 46°50' W 071°12'0 0.0
2018-Jun-11 15:28N 46°50' W 071°12'0 0.0
2018-Jun-11 14:59N 46°50' W 071°12'0 0.0
2018-Jun-11 14:30N 46°50' W 071°12'0 0.0
2018-Jun-11 14:00N 46°50' W 071°12'0 0.0
2018-Jun-11 13:27N 46°50' W 071°12'0 0.0
2018-Jun-11 12:53N 46°50' W 071°12'0 0.0
2018-Jun-11 12:27N 46°50' W 071°12'0 0.0
2018-Jun-11 12:00N 46°50' W 071°12'0 0.0
2018-Jun-11 11:29N 46°50' W 071°12'0 0.0
2018-Jun-11 10:41N 46°50' W 071°12'0 0.0
2018-Jun-11 10:30N 46°50' W 071°12'0 0.0
2018-Jun-11 09:51N 46°50' W 071°12'0 0.0
2018-Jun-11 09:30N 46°50' W 071°12'0 0.0
2018-Jun-11 09:00N 46°50' W 071°12'0 0.0
2018-Jun-11 08:27N 46°50' W 071°12'0 0.0
2018-Jun-11 08:00N 46°50' W 071°12'0 0.0
2018-Jun-11 07:28N 46°50' W 071°12'0 0.0
2018-Jun-11 06:56N 46°50' W 071°12'0 0.0
2018-Jun-11 06:24N 46°50' W 071°12'0 0.0
2018-Jun-11 05:57N 46°50' W 071°12'0 0.0
2018-Jun-11 05:28N 46°50' W 071°12'0 0.0
2018-Jun-11 05:00N 46°50' W 071°12'0 0.0
2018-Jun-11 04:21N 46°50' W 071°12'0 0.0
2018-Jun-11 03:52N 46°50' W 071°12'0 0.0
2018-Jun-11 03:30N 46°50' W 071°12'0 0.0
2018-Jun-11 03:00N 46°50' W 071°12'0 0.0
2018-Jun-11 02:27N 46°50' W 071°12'0 0.0
2018-Jun-11 01:57N 46°50' W 071°12'0 0.0
2018-Jun-11 01:30N 46°50' W 071°12'0 0.0
2018-Jun-11 01:00N 46°50' W 071°12'0 0.0
2018-Jun-11 00:29N 46°50' W 071°12'0 0.0
2018-Jun-11 00:00N 46°50' W 071°12'0 0.0
2018-Jun-10 23:28N 46°50' W 071°12'0 0.0
2018-Jun-10 22:58N 46°50' W 071°12'0 0.0
2018-Jun-10 22:30N 46°50' W 071°12'0 0.0
2018-Jun-10 21:57N 46°50' W 071°12'0 0.0
2018-Jun-10 21:28N 46°50' W 071°12'0 0.0
2018-Jun-10 20:59N 46°50' W 071°12'0 0.0
2018-Jun-10 20:27N 46°50' W 071°12'0 0.2
2018-Jun-10 20:00N 46°50' W 071°12'9010.0
2018-Jun-10 11:01N 46°04' W 073°04'012.2
2018-Jun-10 11:00N 46°04' W 073°04'710.5
2018-Jun-10 10:22N 45°59' W 073°11'512.4
2018-Jun-10 10:00N 45°55' W 073°13'612.1
2018-Jun-10 09:30N 45°50' W 073°18'612.5
2018-Jun-10 09:00N 45°45' W 073°24'1111.4
2018-Jun-10 08:03N 45°35' W 073°30'312.1
2018-Jun-10 07:50N 45°33' W 073°31'3 6.8
2018-Jun-10 07:27N 45°30' W 073°31'1 1.2
2018-Jun-10 06:59N 45°30' W 073°31'0 0.3
2018-Jun-10 06:30N 45°29' W 073°31'1 2.9
2018-Jun-10 06:00N 45°28' W 073°30'3 6.5
2018-Jun-10 05:30N 45°25' W 073°31'2 4.6
2018-Jun-10 05:00N 45°24' W 073°34'0 0.5
2018-Jun-10 04:30N 45°24' W 073°34'2 3.0
2018-Jun-10 03:52N 45°24' W 073°37'2 5.6
2018-Jun-10 03:30N 45°25' W 073°40'2 4.0
2018-Jun-10 03:00N 45°25' W 073°43'4 7.5
2018-Jun-10 02:30N 45°24' W 073°48'611.0
2018-Jun-10 02:00N 45°20' W 073°54'1 2.7
2018-Jun-10 01:30N 45°19' W 073°55'1 1.4
2018-Jun-10 00:59N 45°18' W 073°56'0 0.2
2018-Jun-10 00:30N 45°18' W 073°56'1 1.4
2018-Jun-09 23:59N 45°18' W 073°56'2 4.0
2018-Jun-09 23:30N 45°16' W 073°57'  

Dump ship's entire track history